createdAt,value
2023-04-23T00:02:22.916Z,40.66
2023-04-23T00:04:52.793Z,41.55
2023-04-23T00:07:22.661Z,41.28
2023-04-23T00:09:53.803Z,41.08
2023-04-23T00:12:22.529Z,41.13
2023-04-23T00:14:52.907Z,40.87
2023-04-23T00:17:22.008Z,41.07
2023-04-23T00:19:51.714Z,40.94
2023-04-23T00:22:20.505Z,40.64
2023-04-23T00:24:49.036Z,40.20
2023-04-23T00:27:18.086Z,39.89
2023-04-23T00:29:46.558Z,40.10
2023-04-23T00:32:16.200Z,39.82
2023-04-23T00:34:44.385Z,39.84
2023-04-23T00:37:12.677Z,39.71
2023-04-23T00:39:41.243Z,39.98
2023-04-23T00:42:12.410Z,40.32
2023-04-23T00:44:41.777Z,40.62
2023-04-23T00:47:12.133Z,40.13
2023-04-23T00:49:43.235Z,40.79
2023-04-23T00:52:11.513Z,41.26
2023-04-23T00:54:39.996Z,41.21
2023-04-23T00:57:09.009Z,40.93
2023-04-23T00:59:37.657Z,41.10
2023-04-23T01:02:06.152Z,40.40
2023-04-23T01:04:34.871Z,39.77
2023-04-23T01:07:04.601Z,39.98
2023-04-23T01:09:33.516Z,39.26
2023-04-23T01:12:03.633Z,39.99
2023-04-23T01:14:32.036Z,41.43
2023-04-23T01:17:01.094Z,40.75
2023-04-23T01:19:29.489Z,40.97
2023-04-23T01:22:01.054Z,40.75
2023-04-23T01:24:30.724Z,41.24
2023-04-23T01:26:59.680Z,41.55
2023-04-23T01:29:27.989Z,41.58
2023-04-23T01:31:56.612Z,41.78
2023-04-23T01:34:24.836Z,42.66
2023-04-23T01:36:53.460Z,43.19
2023-04-23T01:39:21.804Z,43.18
2023-04-23T01:41:51.681Z,44.03
2023-04-23T01:44:20.252Z,43.89
2023-04-23T01:46:48.604Z,44.84
2023-04-23T01:49:17.032Z,44.46
2023-04-23T01:51:45.635Z,44.59
2023-04-23T01:54:13.932Z,45.47
2023-04-23T01:56:42.164Z,46.66
2023-04-23T01:59:11.721Z,47.66
2023-04-23T02:01:44.495Z,48.39
2023-04-23T02:04:13.864Z,46.11
2023-04-23T02:06:43.717Z,46.84
2023-04-23T02:09:12.099Z,46.83
2023-04-23T02:11:40.511Z,46.08
2023-04-23T02:14:09.459Z,47.17
2023-04-23T02:16:39.551Z,47.95
2023-04-23T02:19:07.760Z,51.08
2023-04-23T02:21:35.990Z,50.58
2023-04-23T02:24:05.407Z,51.11
2023-04-23T02:26:33.674Z,50.12
2023-04-23T02:29:01.896Z,49.97
2023-04-23T02:31:30.308Z,49.21
2023-04-23T02:34:00.132Z,48.80
2023-04-23T02:36:31.108Z,50.10
2023-04-23T02:38:59.303Z,49.04
2023-04-23T02:41:27.550Z,50.76
2023-04-23T02:43:55.792Z,51.00
2023-04-23T02:46:24.356Z,50.03
2023-04-23T02:48:52.631Z,50.40
2023-04-23T02:51:22.241Z,49.95
2023-04-23T02:53:50.616Z,51.01
2023-04-23T02:56:19.757Z,51.20
2023-04-23T02:58:47.982Z,52.34
2023-04-23T03:01:16.527Z,52.37
2023-04-23T03:03:45.166Z,52.12
2023-04-23T03:06:13.604Z,52.00
2023-04-23T03:08:43.248Z,51.78
2023-04-23T03:11:11.496Z,52.58
2023-04-23T03:13:39.737Z,51.05
2023-04-23T03:16:08.844Z,52.05
2023-04-23T03:18:37.083Z,52.04
2023-04-23T03:21:05.448Z,52.17
2023-04-23T03:23:33.674Z,51.80
2023-04-23T03:26:03.542Z,51.54
2023-04-23T03:28:31.914Z,53.23
2023-04-23T03:31:00.192Z,53.95
2023-04-23T03:33:28.407Z,52.93
2023-04-23T03:35:56.692Z,53.81
2023-04-23T03:38:24.997Z,55.66
2023-04-23T03:40:53.241Z,54.95
2023-04-23T03:43:22.822Z,56.59
2023-04-23T03:45:51.068Z,53.86
2023-04-23T03:48:19.297Z,53.14
2023-04-23T03:50:47.529Z,52.49
2023-04-23T03:53:17.791Z,54.75
2023-04-23T03:55:46.108Z,53.99
2023-04-23T03:58:14.350Z,56.88
2023-04-23T04:00:43.955Z,54.81
2023-04-23T04:03:12.333Z,54.87
2023-04-23T04:05:40.714Z,58.60
2023-04-23T04:08:09.142Z,57.05
2023-04-23T04:10:38.996Z,61.46
2023-04-23T04:13:07.300Z,61.28
2023-04-23T04:15:35.571Z,61.31
2023-04-23T04:18:05.349Z,64.54
2023-04-23T04:20:33.573Z,69.02
2023-04-23T04:23:01.886Z,66.01
2023-04-23T04:25:30.157Z,73.79
2023-04-23T04:27:58.551Z,84.30
2023-04-23T04:30:27.375Z,80.39
2023-04-23T04:32:55.956Z,89.77
2023-04-23T04:35:26.043Z,89.71
2023-04-23T04:37:55.050Z,88.04
2023-04-23T04:40:26.469Z,85.99
2023-04-23T04:42:55.184Z,85.24
2023-04-23T04:45:23.936Z,88.78
2023-04-23T04:47:52.634Z,91.32
2023-04-23T04:50:20.955Z,91.13
2023-04-23T04:52:50.570Z,95.52
2023-04-23T04:55:18.887Z,93.15
2023-04-23T04:57:47.177Z,91.47
2023-04-23T05:00:23.674Z,92.35
2023-04-23T05:02:52.310Z,86.29
2023-04-23T05:05:21.370Z,81.68
2023-04-23T05:07:51.104Z,81.06
2023-04-23T05:10:19.590Z,83.42
2023-04-23T05:12:48.175Z,76.67
2023-04-23T05:15:16.549Z,78.75
2023-04-23T05:17:45.036Z,78.51
2023-04-23T05:20:13.874Z,76.64
2023-04-23T05:22:42.980Z,84.54
2023-04-23T05:25:13.103Z,90.79
2023-04-23T05:27:42.025Z,88.91
2023-04-23T05:30:12.145Z,88.15
2023-04-23T05:32:40.686Z,93.44
2023-04-23T05:35:09.644Z,87.02
2023-04-23T05:37:37.904Z,96.73
2023-04-23T05:40:07.895Z,90.65
2023-04-23T05:42:38.286Z,87.92
2023-04-23T05:45:08.995Z,97.51
2023-04-23T05:47:37.765Z,96.76
2023-04-23T05:50:07.604Z,100.00
2023-04-23T05:52:37.629Z,100.00
2023-04-23T05:55:06.943Z,100.00
2023-04-23T05:57:35.227Z,100.00
2023-04-23T06:00:09.396Z,100.00
2023-04-23T06:02:37.802Z,100.00
2023-04-23T06:05:07.193Z,100.00
2023-04-23T06:07:36.028Z,100.00
2023-04-23T06:10:04.874Z,100.00
2023-04-23T06:12:33.329Z,100.00
2023-04-23T06:15:01.536Z,100.00
2023-04-23T06:17:31.156Z,100.00
2023-04-23T06:19:59.436Z,100.00
2023-04-23T06:22:27.735Z,100.00
2023-04-23T06:24:55.992Z,100.00
2023-04-23T06:27:24.259Z,100.00
2023-04-23T06:29:52.492Z,100.00
2023-04-23T06:32:22.172Z,100.00
2023-04-23T06:35:00.791Z,100.00
2023-04-23T06:37:30.844Z,100.00
2023-04-23T06:40:00.170Z,100.00
2023-04-23T06:42:28.507Z,100.00
2023-04-23T06:44:56.829Z,100.00
2023-04-23T06:47:25.137Z,100.00
2023-04-23T06:49:54.750Z,100.00
2023-04-23T06:52:25.272Z,100.00
2023-04-23T06:54:53.571Z,99.91
2023-04-23T06:57:22.111Z,100.00
2023-04-23T06:59:50.512Z,96.49
2023-04-23T07:02:18.823Z,100.00
2023-04-23T07:04:47.755Z,99.52
2023-04-23T07:07:17.540Z,95.23
2023-04-23T07:09:45.858Z,86.23
2023-04-23T07:12:14.199Z,88.66
2023-04-23T07:14:42.545Z,87.64
2023-04-23T07:17:11.165Z,75.43
2023-04-23T07:19:39.655Z,73.17
2023-04-23T07:22:07.938Z,70.20
2023-04-23T07:24:37.533Z,73.32
2023-04-23T07:27:07.802Z,69.50
2023-04-23T07:29:36.056Z,72.50
2023-04-23T07:32:04.754Z,70.08
2023-04-23T07:34:33.734Z,65.90
2023-04-23T07:37:02.785Z,65.51
2023-04-23T07:39:31.004Z,60.75
2023-04-23T07:42:02.026Z,59.61
2023-04-23T07:44:30.711Z,58.96
2023-04-23T07:46:59.160Z,59.60
2023-04-23T07:49:27.404Z,65.55
2023-04-23T07:51:55.712Z,62.49
2023-04-23T07:54:25.628Z,67.75
2023-04-23T07:56:54.212Z,63.93
2023-04-23T07:59:23.865Z,58.65
2023-04-23T08:01:52.771Z,63.46
2023-04-23T08:04:21.220Z,59.55
2023-04-23T08:06:49.818Z,59.59
2023-04-23T08:09:18.068Z,59.27
2023-04-23T08:11:46.326Z,60.38
2023-04-23T08:14:14.634Z,61.64
2023-04-23T08:16:44.442Z,58.90
2023-04-23T08:19:12.979Z,58.01
2023-04-23T08:21:41.496Z,59.39
2023-04-23T08:24:09.904Z,58.95
2023-04-23T08:26:38.167Z,60.26
2023-04-23T08:29:07.837Z,58.34
2023-04-23T08:31:37.436Z,59.82
2023-04-23T08:34:07.076Z,68.60
2023-04-23T08:36:35.610Z,61.51
2023-04-23T08:39:04.320Z,64.98
2023-04-23T08:41:36.411Z,60.81
2023-04-23T08:44:12.775Z,57.66
2023-04-23T08:46:44.271Z,56.89
2023-04-23T08:49:16.758Z,61.85
2023-04-23T08:51:51.132Z,60.21
2023-04-23T08:54:23.868Z,53.97
2023-04-23T08:56:52.582Z,56.77
2023-04-23T08:59:23.060Z,54.91
2023-04-23T09:01:51.240Z,52.76
2023-04-23T09:04:21.139Z,48.04
2023-04-23T09:06:49.423Z,48.35
2023-04-23T09:09:18.169Z,52.30
2023-04-23T09:11:46.423Z,55.00
2023-04-23T09:14:15.319Z,50.95
2023-04-23T09:16:44.443Z,48.34
2023-04-23T09:19:12.937Z,50.14
2023-04-23T09:21:43.208Z,49.21
2023-04-23T09:24:12.744Z,48.94
2023-04-23T09:26:46.780Z,48.20
2023-04-23T09:29:17.600Z,47.06
2023-04-23T09:31:47.640Z,46.72
2023-04-23T09:34:16.561Z,44.66
2023-04-23T09:36:46.889Z,44.65
2023-04-23T09:39:16.823Z,43.67
2023-04-23T09:41:46.841Z,40.85
2023-04-23T09:44:19.005Z,41.35
2023-04-23T09:46:47.316Z,43.69
2023-04-23T09:49:16.722Z,41.82
2023-04-23T09:51:48.082Z,41.94
2023-04-23T09:54:18.601Z,39.74
2023-04-23T09:56:51.185Z,44.32
2023-04-23T09:59:32.525Z,44.59
2023-04-23T10:02:12.564Z,43.68
2023-04-23T10:04:41.948Z,41.99
2023-04-23T10:07:19.855Z,39.72
2023-04-23T10:09:49.306Z,42.19
2023-04-23T10:12:36.971Z,40.25
2023-04-23T10:15:08.064Z,39.32
2023-04-23T10:17:37.009Z,39.52
2023-04-23T10:20:06.959Z,38.35
2023-04-23T10:22:37.887Z,37.07
2023-04-23T10:25:09.749Z,38.50
2023-04-23T10:27:51.322Z,40.01
2023-04-23T10:30:22.362Z,36.60
2023-04-23T10:32:51.365Z,37.08
2023-04-23T10:35:19.789Z,36.13
2023-04-23T10:37:49.722Z,34.62
2023-04-23T10:40:23.267Z,36.36
2023-04-23T10:42:51.799Z,36.24
2023-04-23T10:45:24.805Z,36.89
2023-04-23T10:47:57.471Z,37.96
2023-04-23T10:50:27.519Z,38.78
2023-04-23T10:52:58.727Z,37.66
2023-04-23T10:55:28.568Z,35.76
2023-04-23T10:58:02.355Z,37.26
2023-04-23T11:00:44.187Z,36.97
2023-04-23T11:03:33.033Z,36.39
2023-04-23T11:06:05.136Z,36.78
2023-04-23T11:08:36.544Z,36.05
2023-04-23T11:11:08.689Z,35.94
2023-04-23T11:13:37.054Z,36.23
2023-04-23T11:16:15.720Z,36.11
2023-04-23T11:19:02.387Z,35.83
2023-04-23T11:21:58.461Z,37.60
2023-04-23T11:24:29.617Z,37.62
2023-04-23T11:26:58.059Z,35.41
2023-04-23T11:29:28.110Z,35.61
2023-04-23T11:34:28.298Z,34.54
2023-04-23T11:36:58.480Z,34.90
2023-04-23T11:39:28.474Z,34.39
2023-04-23T11:41:57.097Z,33.41
2023-04-23T11:44:25.424Z,32.89
2023-04-23T11:46:53.704Z,32.90
2023-04-23T11:49:22.092Z,35.56
2023-04-23T11:51:50.319Z,35.53
2023-04-23T11:54:18.563Z,36.77
2023-04-23T11:56:48.207Z,33.73
2023-04-23T11:59:16.575Z,35.11
2023-04-23T12:01:46.074Z,33.40
2023-04-23T12:04:16.021Z,32.96
2023-04-23T12:06:45.655Z,33.55
2023-04-23T12:09:15.330Z,34.61
2023-04-23T12:11:44.877Z,34.30
2023-04-23T12:14:15.561Z,34.28
2023-04-23T12:16:44.966Z,35.91
2023-04-23T12:19:15.365Z,35.46
2023-04-23T12:21:50.180Z,32.85
2023-04-23T12:24:18.458Z,33.39
2023-04-23T12:26:48.329Z,32.93
2023-04-23T12:29:19.358Z,34.11
2023-04-23T12:31:47.669Z,35.76
2023-04-23T12:34:16.759Z,33.63
2023-04-23T12:36:47.381Z,34.50
2023-04-23T12:39:29.391Z,33.33
2023-04-23T12:42:00.166Z,35.66
2023-04-23T12:44:30.106Z,34.27
2023-04-23T12:47:00.282Z,32.49
2023-04-23T12:49:29.522Z,34.35
2023-04-23T12:52:01.120Z,34.21
2023-04-23T12:54:31.234Z,35.02
2023-04-23T12:56:59.786Z,36.94
2023-04-23T12:59:29.385Z,37.90
2023-04-23T13:01:58.045Z,37.27
2023-04-23T13:04:26.417Z,36.25
2023-04-23T13:06:54.791Z,36.88
2023-04-23T13:09:26.859Z,38.17
2023-04-23T13:11:55.613Z,38.58
2023-04-23T13:14:24.025Z,38.81
2023-04-23T13:16:53.669Z,36.77
2023-04-23T13:19:21.984Z,34.35
2023-04-23T13:21:50.274Z,34.31
2023-04-23T13:24:18.606Z,35.83
2023-04-23T13:26:46.835Z,36.01
2023-04-23T13:29:16.043Z,34.70
2023-04-23T13:31:44.368Z,34.92
2023-04-23T13:34:14.019Z,36.55
2023-04-23T13:36:42.342Z,37.10
2023-04-23T13:39:12.666Z,36.44
2023-04-23T13:41:40.721Z,33.85
2023-04-23T13:44:08.901Z,34.00
2023-04-23T13:46:37.461Z,35.08
2023-04-23T13:49:05.803Z,35.75
2023-04-23T13:51:36.204Z,35.90
2023-04-23T13:54:05.268Z,34.53
2023-04-23T13:56:33.594Z,33.79
2023-04-23T14:01:35.308Z,34.16
2023-04-23T14:04:04.721Z,33.35
2023-04-23T14:06:33.045Z,33.73
2023-04-23T14:09:02.627Z,33.81
2023-04-23T14:11:30.848Z,34.46
2023-04-23T14:14:00.797Z,35.47
2023-04-23T14:16:29.227Z,37.67
2023-04-23T14:18:58.487Z,35.24
2023-04-23T14:21:26.774Z,35.58
2023-04-23T14:23:57.674Z,35.29
2023-04-23T14:26:47.315Z,34.01
2023-04-23T14:29:25.284Z,34.31
2023-04-23T14:31:53.620Z,32.60
2023-04-23T14:34:22.351Z,32.78
2023-04-23T14:36:52.806Z,33.69
2023-04-23T14:39:22.497Z,35.37
2023-04-23T14:41:52.142Z,34.64
2023-04-23T14:44:22.407Z,35.65
2023-04-23T14:46:51.114Z,34.61
2023-04-23T14:49:20.829Z,33.49
2023-04-23T14:51:50.854Z,33.31
2023-04-23T14:54:19.229Z,32.64
2023-04-23T14:56:47.590Z,32.11
2023-04-23T14:59:17.355Z,32.41
2023-04-23T15:01:45.766Z,30.46
2023-04-23T15:04:14.389Z,31.36
2023-04-23T15:06:42.669Z,33.50
2023-04-23T15:09:10.891Z,32.13
2023-04-23T15:11:39.238Z,33.02
2023-04-23T15:14:09.637Z,31.07
2023-04-23T15:19:11.533Z,33.40
2023-04-23T15:21:42.443Z,32.68
2023-04-23T15:24:10.794Z,32.41
2023-04-23T15:26:39.200Z,35.31
2023-04-23T15:29:09.046Z,34.17
2023-04-23T15:31:39.414Z,33.92
2023-04-23T15:34:09.278Z,35.18
2023-04-23T15:36:38.474Z,34.79
2023-04-23T15:39:07.511Z,36.18
2023-04-23T15:41:39.422Z,36.37
2023-04-23T15:44:10.945Z,36.04
2023-04-23T15:46:41.069Z,36.88
2023-04-23T15:49:09.962Z,36.08
2023-04-23T15:51:38.637Z,35.81
2023-04-23T15:54:08.724Z,35.98
2023-04-23T15:56:37.707Z,37.90
2023-04-23T15:59:06.237Z,38.01
2023-04-23T16:01:34.597Z,36.46
2023-04-23T16:06:35.531Z,37.02
2023-04-23T16:09:06.802Z,37.34
2023-04-23T16:11:35.706Z,36.90
2023-04-23T16:14:04.617Z,38.24
2023-04-23T16:16:33.136Z,38.11
2023-04-23T16:19:01.959Z,38.27
2023-04-23T16:21:32.744Z,37.94
2023-04-23T16:24:01.265Z,38.92
2023-04-23T16:26:29.856Z,38.29
2023-04-23T16:29:11.466Z,38.53
2023-04-23T16:31:45.697Z,38.89
2023-04-23T16:34:14.166Z,39.51
2023-04-23T16:36:44.136Z,38.77
2023-04-23T16:39:12.420Z,39.68
2023-04-23T16:41:40.692Z,38.44
2023-04-23T16:44:09.035Z,39.39
2023-04-23T16:46:37.441Z,38.74
2023-04-23T16:49:05.816Z,38.06
2023-04-23T16:51:34.136Z,38.78
2023-04-23T16:54:03.975Z,37.79
2023-04-23T16:56:32.914Z,37.96
2023-04-23T16:59:01.721Z,38.80
2023-04-23T17:01:30.096Z,39.84
2023-04-23T17:03:58.470Z,40.25
2023-04-23T17:06:28.128Z,41.62
2023-04-23T17:08:57.768Z,42.93
2023-04-23T17:11:28.241Z,43.98
2023-04-23T17:13:57.474Z,44.45
2023-04-23T17:16:26.997Z,45.43
2023-04-23T17:18:55.681Z,45.01
2023-04-23T17:21:24.271Z,46.41
2023-04-23T17:23:52.568Z,47.21
2023-04-23T17:26:21.035Z,47.55
2023-04-23T17:28:50.656Z,47.07
2023-04-23T17:31:19.246Z,48.50
2023-04-23T17:33:49.309Z,46.73
2023-04-23T17:36:18.143Z,49.46
2023-04-23T17:38:46.371Z,49.12
2023-04-23T17:41:14.776Z,48.19
2023-04-23T17:43:43.137Z,48.58
2023-04-23T17:46:13.095Z,46.96
2023-04-23T17:48:41.737Z,47.06
2023-04-23T17:51:09.966Z,46.25
2023-04-23T17:53:38.892Z,48.88
2023-04-23T17:56:07.223Z,49.09
2023-04-23T17:58:36.122Z,47.53
2023-04-23T18:01:05.829Z,47.88
2023-04-23T18:03:35.770Z,49.94
2023-04-23T18:06:04.243Z,50.47
2023-04-23T18:08:32.776Z,55.58
2023-04-23T18:11:01.212Z,54.01
2023-04-23T18:13:29.634Z,50.04
2023-04-23T18:15:57.872Z,49.70
2023-04-23T18:18:26.323Z,51.46
2023-04-23T18:20:55.963Z,50.93
2023-04-23T18:23:26.064Z,51.34
2023-04-23T18:25:54.519Z,48.47
2023-04-23T18:28:22.821Z,47.88
2023-04-23T18:30:51.257Z,46.36
2023-04-23T18:33:27.138Z,46.32
2023-04-23T18:35:59.415Z,46.13
2023-04-23T18:38:32.894Z,47.66
2023-04-23T18:41:04.429Z,48.19
2023-04-23T18:43:33.486Z,47.78
2023-04-23T18:46:02.264Z,47.00
2023-04-23T18:48:48.415Z,48.20
2023-04-23T18:51:26.511Z,48.11
2023-04-23T18:53:54.790Z,47.38
2023-04-23T18:56:25.077Z,46.80
2023-04-23T18:58:53.521Z,47.22
2023-04-23T19:01:21.848Z,47.23
2023-04-23T19:03:50.155Z,46.93
2023-04-23T19:06:18.687Z,48.95
2023-04-23T19:08:48.302Z,53.36
2023-04-23T19:11:16.565Z,84.86
2023-04-23T19:13:44.767Z,77.94
2023-04-23T19:16:13.117Z,59.33
2023-04-23T19:18:41.363Z,56.23
2023-04-23T19:21:09.681Z,63.21
2023-04-23T19:23:38.196Z,84.25
2023-04-23T19:26:07.809Z,97.55
2023-04-23T19:28:36.045Z,100.00
2023-04-23T19:31:04.799Z,100.00
2023-04-23T19:33:33.105Z,100.00
2023-04-23T19:36:01.421Z,100.00
2023-04-23T19:38:29.650Z,100.00
2023-04-23T19:40:57.971Z,100.00
2023-04-23T19:43:27.627Z,100.00
2023-04-23T19:45:55.916Z,100.00
2023-04-23T19:48:24.195Z,100.00
2023-04-23T19:50:52.444Z,100.00
2023-04-23T19:53:21.557Z,100.00
2023-04-23T19:55:49.854Z,100.00
2023-04-23T19:58:18.692Z,100.00
2023-04-23T20:00:48.453Z,100.00
2023-04-23T20:03:17.055Z,100.00
2023-04-23T20:05:46.290Z,100.00
2023-04-23T20:08:25.682Z,100.00
2023-04-23T20:10:54.205Z,100.00
2023-04-23T20:13:23.657Z,100.00
2023-04-23T20:15:55.043Z,100.00
2023-04-23T20:18:25.542Z,100.00
2023-04-23T20:20:53.913Z,100.00
2023-04-23T20:23:22.226Z,100.00
2023-04-23T20:25:50.502Z,100.00
2023-04-23T20:28:18.756Z,100.00
2023-04-23T20:30:47.571Z,100.00
2023-04-23T20:33:18.810Z,100.00
2023-04-23T20:35:47.781Z,100.00
2023-04-23T20:38:19.227Z,100.00
2023-04-23T20:40:47.803Z,100.00
2023-04-23T20:43:17.324Z,100.00
2023-04-23T20:45:46.630Z,100.00
2023-04-23T20:48:15.416Z,100.00
2023-04-23T20:50:45.068Z,100.00
2023-04-23T20:53:14.267Z,100.00
2023-04-23T20:55:42.594Z,100.00
2023-04-23T20:58:11.051Z,100.00
2023-04-23T21:00:39.437Z,100.00
2023-04-23T21:03:08.019Z,100.00
2023-04-23T21:05:38.165Z,100.00
2023-04-23T21:08:07.856Z,100.00
2023-04-23T21:10:36.237Z,92.96
2023-04-23T21:13:04.558Z,89.00
2023-04-23T21:15:35.008Z,85.69
2023-04-23T21:18:04.283Z,86.35
2023-04-23T21:20:32.682Z,84.29
2023-04-23T21:23:00.925Z,85.38
2023-04-23T21:25:30.754Z,84.34
2023-04-23T21:27:59.553Z,84.15
2023-04-23T21:30:33.888Z,85.76
2023-04-23T21:33:02.196Z,84.64
2023-04-23T21:35:30.750Z,81.27
2023-04-23T21:37:59.128Z,79.59
2023-04-23T21:40:27.517Z,85.80
2023-04-23T21:42:57.153Z,84.31
2023-04-23T21:45:25.353Z,88.32
2023-04-23T21:47:53.637Z,96.64
2023-04-23T21:50:22.147Z,90.84
2023-04-23T21:52:53.122Z,99.17
2023-04-23T21:55:21.830Z,100.00
2023-04-23T21:57:50.447Z,97.86
2023-04-23T22:00:20.451Z,94.92
2023-04-23T22:02:48.989Z,100.00
2023-04-23T22:05:20.094Z,100.00
2023-04-23T22:07:48.697Z,100.00
2023-04-23T22:10:17.251Z,100.00
2023-04-23T22:12:46.296Z,100.00
2023-04-23T22:15:16.353Z,100.00
2023-04-23T22:17:50.342Z,100.00
2023-04-23T22:20:23.547Z,100.00
2023-04-23T22:22:51.869Z,100.00
2023-04-23T22:25:20.081Z,100.00
2023-04-23T22:27:48.468Z,100.00
2023-04-23T22:30:16.827Z,100.00
2023-04-23T22:32:46.762Z,98.84
2023-04-23T22:35:15.152Z,93.00
2023-04-23T22:37:43.522Z,89.99
2023-04-23T22:40:12.232Z,86.36
2023-04-23T22:42:40.525Z,90.45
2023-04-23T22:45:09.398Z,89.35
2023-04-23T22:47:37.767Z,89.95
2023-04-23T22:50:09.060Z,100.00
2023-04-23T22:52:37.783Z,99.44
2023-04-23T22:55:07.472Z,100.00
2023-04-23T22:57:35.943Z,100.00
2023-04-23T23:00:07.399Z,100.00
2023-04-23T23:02:35.910Z,100.00
2023-04-23T23:05:04.639Z,100.00
2023-04-23T23:07:34.304Z,100.00
2023-04-23T23:10:03.752Z,100.00
2023-04-23T23:12:32.046Z,100.00
2023-04-23T23:15:00.310Z,100.00
2023-04-23T23:17:28.705Z,100.00
2023-04-23T23:19:57.022Z,100.00
2023-04-23T23:22:25.276Z,100.00
2023-04-23T23:24:54.936Z,100.00
2023-04-23T23:27:23.138Z,100.00
2023-04-23T23:29:51.398Z,100.00
2023-04-23T23:32:19.654Z,100.00
2023-04-23T23:34:47.933Z,100.00
2023-04-23T23:37:16.595Z,100.00
2023-04-23T23:39:45.747Z,100.00
2023-04-23T23:42:15.968Z,100.00
2023-04-23T23:44:44.225Z,100.00
2023-04-23T23:47:12.488Z,100.00
2023-04-23T23:49:41.592Z,100.00
2023-04-23T23:52:13.101Z,100.00
2023-04-23T23:54:41.544Z,100.00
2023-04-23T23:57:10.084Z,100.00
2023-04-23T23:59:39.781Z,100.00
